Terminal Aerodrome Forecast
Issued by NWS Charleston, WV

Current Version | Previous Version | Graphics & Text | Print | Product List | Glossary Off
Versions: 1 2 3 4 5 6 7 8 9 10 11 12 13 14 15 16 17 18 19 20 21 22 23 24 25

000
FTUS41 KRLX 291959 AAB
TAFPKB
TAF AMD
KPKB 291959Z 2920/3018 15005KT P6SM -SHRA VCTS BKN080CB
      TEMPO 2920/2921 25013G20KT 2SM +TSRA BKN040CB
     FM300000 18006KT P6SM BKN150
     FM300500 00000KT 4SM BR SCT040
     FM301300 VRB04KT P6SM BKN250=

USA.gov is the U.S. government's official web portal to all federal, state and local government web resources and services.